»·PEaware :: AAL432 KAMA-KDEN

AAL432 :: KAMA-KDEN

FLIGHT INFORMATION

Flight Status: Arrived
Operator:
American Airlines
More flights by this operator :: More flights under this callsign
Pilot: Matt C. (5456)
Aircraft: BOEING 737-800
(B738)
More flights by this aircraft type
Origin: KAMA Amarillo Intl
United States
Destination: KDEN Denver Intl
United States
More flights between these airports :: More routes between these airports
Route: ZIGGE BOSS2
File this flight plan on PilotEdge
Remarks:
Altitude:
(Current/Filed)
34,000ft
Speed:
(Current/Filed)
450kts
Departed: 20-Aug-17 04:36 PM
Arrived: 20-Aug-17 05:35 PM
Distance/Time
Traveled:
312nm/0:59
Distance/Time
To Go:
Arrived

Flight Plot

Page will automatically refresh every two minutes.

Flight plan parsing failed; only flown route is shown


Map Options




Map Legend


Flown Route
Filed Route
Departure Airport
Arrival Airport
Navaid (VOR, NDB)
Fix

Horizontal Profiles

Position Reports

Time Latitude Longitude Heading Altitude Ground
Speed
20-Aug-17 16:20 35.218842 -101.706748 106 3613ft 0kts
20-Aug-17 16:21 35.218842 -101.706748 106 3613ft 0kts
20-Aug-17 16:22 35.218842 -101.706748 106 3613ft 0kts
20-Aug-17 16:23 35.218842 -101.706748 106 3613ft 0kts
20-Aug-17 16:24 35.218842 -101.706748 106 3613ft 0kts
20-Aug-17 16:25 35.218842 -101.706748 106 3613ft 0kts
20-Aug-17 16:26 35.218842 -101.706748 106 3613ft 0kts
20-Aug-17 16:27 35.218842 -101.706748 106 3613ft 0kts
20-Aug-17 16:28 35.218842 -101.706748 106 3613ft 0kts
20-Aug-17 16:29 35.218842 -101.706748 106 3613ft 0kts
20-Aug-17 16:30 35.218842 -101.706748 106 3613ft 0kts
20-Aug-17 16:31 35.218842 -101.706747 106 3613ft 0kts
20-Aug-17 16:32 35.218977 -101.707303 106 3613ft 0kts
20-Aug-17 16:33 35.218977 -101.707303 106 3613ft 0kts
20-Aug-17 16:34 35.218977 -101.707303 106 3613ft 0kts
20-Aug-17 16:35 35.219995 -101.707077 18 3613ft 7kts
20-Aug-17 16:36 35.221814 -101.706402 46 3613ft 13kts
20-Aug-17 16:37 35.224801 -101.702651 46 3613ft 16kts
20-Aug-17 16:38 35.227882 -101.698759 45 3613ft 14kts
20-Aug-17 16:39 35.230043 -101.699499 313 3613ft 7kts
20-Aug-17 16:40 35.225441 -101.707016 224 3614ft 95kts
20-Aug-17 16:41 35.198542 -101.740978 222 4463ft 160kts
20-Aug-17 16:42 35.161539 -101.791089 225 5709ft 249kts
20-Aug-17 16:43 35.124122 -101.867435 267 8420ft 286kts
20-Aug-17 16:44 35.173889 -101.941157 343 10821ft 330kts
20-Aug-17 16:45 35.263050 -101.972443 344 13566ft 346kts
20-Aug-17 16:46 35.356925 -102.004711 343 16194ft 361kts
20-Aug-17 16:47 35.452774 -102.037908 342 16980ft 364kts
20-Aug-17 16:48 35.549874 -102.071759 342 18394ft 371kts
20-Aug-17 16:49 35.648930 -102.106353 341 20712ft 380kts
20-Aug-17 16:50 35.750747 -102.142092 341 22731ft 389kts
20-Aug-17 16:51 35.850802 -102.177752 342 25069ft 382kts
20-Aug-17 16:52 35.953899 -102.213895 341 26409ft 397kts
20-Aug-17 16:53 36.059669 -102.251211 341 27861ft 404kts
20-Aug-17 16:54 36.162069 -102.287545 339 29228ft 407kts
20-Aug-17 16:55 36.270217 -102.326310 341 30239ft 417kts
20-Aug-17 16:56 36.380065 -102.365453 341 31522ft 415kts
20-Aug-17 16:57 36.476145 -102.399788 340 32454ft 415kts
20-Aug-17 16:58 36.585402 -102.438959 340 33422ft 414kts
20-Aug-17 16:59 36.695263 -102.478548 339 34000ft 423kts
20-Aug-17 17:00 36.810166 -102.520291 340 34013ft 449kts
20-Aug-17 17:01 36.931574 -102.564393 339 34062ft 471kts
20-Aug-17 17:02 37.056831 -102.610118 339 34048ft 473kts
20-Aug-17 17:03 37.178831 -102.654708 339 34045ft 473kts
20-Aug-17 17:04 37.303169 -102.700315 339 34047ft 472kts
20-Aug-17 17:05 37.427711 -102.746195 338 34050ft 472kts
20-Aug-17 17:06 37.552183 -102.789962 339 34035ft 456kts
20-Aug-17 17:07 37.672845 -102.828181 339 33978ft 459kts
20-Aug-17 17:08 37.795144 -102.866646 339 33970ft 458kts
20-Aug-17 17:09 37.916930 -102.905074 339 33970ft 457kts
20-Aug-17 17:10 38.030038 -102.940883 339 33970ft 457kts
20-Aug-17 17:11 38.150181 -102.979051 339 33966ft 459kts
20-Aug-17 17:12 38.272738 -103.018106 339 33966ft 458kts
20-Aug-17 17:13 38.395411 -103.057329 339 33963ft 457kts
20-Aug-17 17:14 38.513349 -103.107227 319 33969ft 441kts
20-Aug-17 17:15 38.599198 -103.211444 310 33970ft 433kts
20-Aug-17 17:16 38.685779 -103.315303 310 33640ft 440kts
20-Aug-17 17:17 38.769649 -103.425063 307 31253ft 434kts
20-Aug-17 17:18 38.851009 -103.540417 308 28924ft 446kts
20-Aug-17 17:19 38.933936 -103.657994 308 26572ft 452kts
20-Aug-17 17:20 39.017589 -103.776895 309 24266ft 460kts
20-Aug-17 17:21 39.101754 -103.896882 309 21099ft 457kts
20-Aug-17 17:22 39.183046 -104.013154 309 19041ft 408kts
20-Aug-17 17:23 39.250313 -104.110378 304 17341ft 329kts
20-Aug-17 17:24 39.280690 -104.215954 285 17137ft 324kts
20-Aug-17 17:25 39.306196 -104.326039 284 15824ft 320kts
20-Aug-17 17:26 39.329158 -104.427985 285 14241ft 277kts
20-Aug-17 17:27 39.348296 -104.513296 285 13138ft 227kts
20-Aug-17 17:28 39.367073 -104.591866 298 12140ft 229kts
20-Aug-17 17:29 39.409070 -104.651539 329 12163ft 230kts
20-Aug-17 17:30 39.460624 -104.663401 359 12011ft 210kts
20-Aug-17 17:31 39.514495 -104.663836 0 11936ft 194kts
20-Aug-17 17:32 39.565439 -104.663793 0 10780ft 182kts
20-Aug-17 17:33 39.614678 -104.663333 1 9742ft 174kts
20-Aug-17 17:34 39.663047 -104.662735 1 8760ft 174kts
20-Aug-17 17:35 39.710565 -104.662115 1 7796ft 171kts
20-Aug-17 17:36 39.757533 -104.661478 1 6862ft 169kts
20-Aug-17 17:37 39.803850 -104.660885 1 5959ft 167kts
20-Aug-17 17:38 39.846178 -104.660333 359 5439ft 86kts
20-Aug-17 17:39 39.853538 -104.661993 330 5438ft 0kts
20-Aug-17 17:40 39.854628 -104.662397 2 5438ft 9kts
20-Aug-17 17:41 39.856769 -104.663546 270 5438ft 13kts
20-Aug-17 17:42 39.857381 -104.666910 0 5439ft 3kts
20-Aug-17 17:43 39.857438 -104.666910 0 5438ft 0kts

Navigation Log

Ident Type
Flight plan parsing failed, navigation log unavailable